sensor_id;sensor_type;location;lat;lon;timestamp;temperature;humidity
56308;DHT22;42217;50.422;7.210;2023-07-31T00:01:22;17.50;63.60
56308;DHT22;42217;50.422;7.210;2023-07-31T00:03:47;17.40;65.30
56308;DHT22;42217;50.422;7.210;2023-07-31T00:06:13;17.30;68.10
56308;DHT22;42217;50.422;7.210;2023-07-31T00:08:39;17.30;69.50
56308;DHT22;42217;50.422;7.210;2023-07-31T00:11:04;17.30;69.70
56308;DHT22;42217;50.422;7.210;2023-07-31T00:13:30;17.30;70.90
56308;DHT22;42217;50.422;7.210;2023-07-31T00:15:55;17.30;71.20
56308;DHT22;42217;50.422;7.210;2023-07-31T00:18:21;17.30;72.10
56308;DHT22;42217;50.422;7.210;2023-07-31T00:20:47;17.20;73.60
56308;DHT22;42217;50.422;7.210;2023-07-31T00:23:13;17.20;74.50
56308;DHT22;42217;50.422;7.210;2023-07-31T00:25:39;17.20;75.80
56308;DHT22;42217;50.422;7.210;2023-07-31T00:28:04;17.10;79.10
56308;DHT22;42217;50.422;7.210;2023-07-31T00:30:30;17.10;79.60
56308;DHT22;42217;50.422;7.210;2023-07-31T00:32:56;17.10;78.70
56308;DHT22;42217;50.422;7.210;2023-07-31T00:35:21;17.10;80.50
56308;DHT22;42217;50.422;7.210;2023-07-31T00:37:47;17.10;81.80
56308;DHT22;42217;50.422;7.210;2023-07-31T00:40:12;17.00;85.50
56308;DHT22;42217;50.422;7.210;2023-07-31T00:42:39;17.00;84.80
56308;DHT22;42217;50.422;7.210;2023-07-31T00:45:05;17.00;86.00
56308;DHT22;42217;50.422;7.210;2023-07-31T00:47:31;17.00;89.50
56308;DHT22;42217;50.422;7.210;2023-07-31T00:49:57;17.00;86.50
56308;DHT22;42217;50.422;7.210;2023-07-31T00:52:23;17.10;85.60
56308;DHT22;42217;50.422;7.210;2023-07-31T00:54:49;17.10;84.70
56308;DHT22;42217;50.422;7.210;2023-07-31T00:57:15;17.10;83.40
56308;DHT22;42217;50.422;7.210;2023-07-31T00:59:41;17.10;84.80
56308;DHT22;42217;50.422;7.210;2023-07-31T01:02:07;17.10;85.10
56308;DHT22;42217;50.422;7.210;2023-07-31T01:04:33;17.10;82.20
56308;DHT22;42217;50.422;7.210;2023-07-31T01:07:20;17.20;80.00
56308;DHT22;42217;50.422;7.210;2023-07-31T01:09:54;17.10;80.70
56308;DHT22;42217;50.422;7.210;2023-07-31T01:12:24;17.10;80.90
56308;DHT22;42217;50.422;7.210;2023-07-31T01:15:22;17.20;78.80
56308;DHT22;42217;50.422;7.210;2023-07-31T01:17:48;17.20;76.90
56308;DHT22;42217;50.422;7.210;2023-07-31T01:20:21;17.30;76.20
56308;DHT22;42217;50.422;7.210;2023-07-31T01:23:03;17.20;75.90
56308;DHT22;42217;50.422;7.210;2023-07-31T01:31:13;17.20;77.90
56308;DHT22;42217;50.422;7.210;2023-07-31T01:33:40;17.10;79.30
56308;DHT22;42217;50.422;7.210;2023-07-31T01:36:06;17.20;75.80
56308;DHT22;42217;50.422;7.210;2023-07-31T01:38:32;17.10;76.40
56308;DHT22;42217;50.422;7.210;2023-07-31T01:40:58;17.20;73.60
56308;DHT22;42217;50.422;7.210;2023-07-31T01:43:24;17.10;75.90
56308;DHT22;42217;50.422;7.210;2023-07-31T01:45:49;17.10;75.90
56308;DHT22;42217;50.422;7.210;2023-07-31T01:48:15;17.10;76.20
56308;DHT22;42217;50.422;7.210;2023-07-31T01:50:41;17.10;76.00
56308;DHT22;42217;50.422;7.210;2023-07-31T01:53:06;17.10;76.20
56308;DHT22;42217;50.422;7.210;2023-07-31T01:55:32;17.00;78.40
56308;DHT22;42217;50.422;7.210;2023-07-31T01:57:58;17.00;76.90
56308;DHT22;42217;50.422;7.210;2023-07-31T02:00:23;17.00;78.50
56308;DHT22;42217;50.422;7.210;2023-07-31T02:05:24;16.90;80.90
56308;DHT22;42217;50.422;7.210;2023-07-31T02:07:57;16.90;78.50
56308;DHT22;42217;50.422;7.210;2023-07-31T02:10:23;16.90;79.60
56308;DHT22;42217;50.422;7.210;2023-07-31T02:18:46;16.90;81.80
56308;DHT22;42217;50.422;7.210;2023-07-31T02:21:12;16.90;81.20
56308;DHT22;42217;50.422;7.210;2023-07-31T02:23:37;16.90;81.60
56308;DHT22;42217;50.422;7.210;2023-07-31T02:26:03;16.90;81.70
56308;DHT22;42217;50.422;7.210;2023-07-31T02:28:29;16.90;82.50
56308;DHT22;42217;50.422;7.210;2023-07-31T02:30:55;16.90;81.30
56308;DHT22;42217;50.422;7.210;2023-07-31T02:33:21;17.00;80.90
56308;DHT22;42217;50.422;7.210;2023-07-31T02:35:46;16.90;83.60
56308;DHT22;42217;50.422;7.210;2023-07-31T02:38:14;16.80;86.30
56308;DHT22;42217;50.422;7.210;2023-07-31T02:40:40;16.80;86.50
56308;DHT22;42217;50.422;7.210;2023-07-31T02:43:09;16.90;84.60
56308;DHT22;42217;50.422;7.210;2023-07-31T02:45:34;16.80;87.00
56308;DHT22;42217;50.422;7.210;2023-07-31T02:48:00;16.90;87.20
56308;DHT22;42217;50.422;7.210;2023-07-31T02:50:26;16.80;87.60
56308;DHT22;42217;50.422;7.210;2023-07-31T02:52:53;16.80;90.00
56308;DHT22;42217;50.422;7.210;2023-07-31T02:55:18;16.80;90.10
56308;DHT22;42217;50.422;7.210;2023-07-31T02:57:44;16.90;88.60
56308;DHT22;42217;50.422;7.210;2023-07-31T03:00:10;16.90;86.60
56308;DHT22;42217;50.422;7.210;2023-07-31T03:02:36;16.90;86.70
56308;DHT22;42217;50.422;7.210;2023-07-31T03:05:02;17.00;85.40
56308;DHT22;42217;50.422;7.210;2023-07-31T03:07:30;16.90;86.90
56308;DHT22;42217;50.422;7.210;2023-07-31T03:09:56;17.00;88.20
56308;DHT22;42217;50.422;7.210;2023-07-31T03:12:22;17.00;90.50
56308;DHT22;42217;50.422;7.210;2023-07-31T03:14:47;16.90;92.20
56308;DHT22;42217;50.422;7.210;2023-07-31T03:17:13;16.90;93.10
56308;DHT22;42217;50.422;7.210;2023-07-31T03:19:39;16.80;94.50
56308;DHT22;42217;50.422;7.210;2023-07-31T03:22:05;16.80;95.80
56308;DHT22;42217;50.422;7.210;2023-07-31T03:24:30;16.80;97.10
56308;DHT22;42217;50.422;7.210;2023-07-31T03:26:56;16.70;97.40
56308;DHT22;42217;50.422;7.210;2023-07-31T03:29:22;16.80;97.30
56308;DHT22;42217;50.422;7.210;2023-07-31T03:31:52;16.70;98.30
56308;DHT22;42217;50.422;7.210;2023-07-31T03:34:18;16.70;98.00
56308;DHT22;42217;50.422;7.210;2023-07-31T03:36:43;16.70;98.30
56308;DHT22;42217;50.422;7.210;2023-07-31T03:39:09;16.60;99.90
56308;DHT22;42217;50.422;7.210;2023-07-31T03:41:35;16.50;99.90
56308;DHT22;42217;50.422;7.210;2023-07-31T03:44:01;16.50;99.90
56308;DHT22;42217;50.422;7.210;2023-07-31T03:46:26;16.40;99.90
56308;DHT22;42217;50.422;7.210;2023-07-31T03:48:52;16.40;99.90
56308;DHT22;42217;50.422;7.210;2023-07-31T03:51:18;16.40;99.90
56308;DHT22;42217;50.422;7.210;2023-07-31T03:53:44;16.40;99.90
56308;DHT22;42217;50.422;7.210;2023-07-31T03:56:10;16.40;99.90
56308;DHT22;42217;50.422;7.210;2023-07-31T03:58:36;16.40;99.90
56308;DHT22;42217;50.422;7.210;2023-07-31T04:01:02;16.40;99.90
56308;DHT22;42217;50.422;7.210;2023-07-31T04:03:31;16.30;99.90
56308;DHT22;42217;50.422;7.210;2023-07-31T04:05:56;16.30;99.90
56308;DHT22;42217;50.422;7.210;2023-07-31T04:08:23;16.40;99.90
56308;DHT22;42217;50.422;7.210;2023-07-31T04:10:48;16.50;99.90
56308;DHT22;42217;50.422;7.210;2023-07-31T04:13:14;16.40;99.90
56308;DHT22;42217;50.422;7.210;2023-07-31T04:15:40;16.40;99.90
56308;DHT22;42217;50.422;7.210;2023-07-31T04:18:06;16.50;99.90
56308;DHT22;42217;50.422;7.210;2023-07-31T04:20:32;16.50;99.90
56308;DHT22;42217;50.422;7.210;2023-07-31T04:22:58;16.50;99.90
56308;DHT22;42217;50.422;7.210;2023-07-31T04:25:24;16.50;99.90
56308;DHT22;42217;50.422;7.210;2023-07-31T04:27:49;16.50;99.90
56308;DHT22;42217;50.422;7.210;2023-07-31T04:30:15;16.60;99.90
56308;DHT22;42217;50.422;7.210;2023-07-31T04:32:41;16.70;99.90
56308;DHT22;42217;50.422;7.210;2023-07-31T04:35:07;16.70;99.90
56308;DHT22;42217;50.422;7.210;2023-07-31T04:37:32;16.60;99.90
56308;DHT22;42217;50.422;7.210;2023-07-31T04:39:58;16.60;99.90
56308;DHT22;42217;50.422;7.210;2023-07-31T04:42:24;16.60;99.90
56308;DHT22;42217;50.422;7.210;2023-07-31T04:44:49;16.70;99.90
56308;DHT22;42217;50.422;7.210;2023-07-31T04:47:15;16.80;99.90
56308;DHT22;42217;50.422;7.210;2023-07-31T04:49:41;16.80;99.90
56308;DHT22;42217;50.422;7.210;2023-07-31T04:52:06;16.80;99.90
56308;DHT22;42217;50.422;7.210;2023-07-31T04:54:32;16.90;99.90
56308;DHT22;42217;50.422;7.210;2023-07-31T04:56:58;17.00;96.80
56308;DHT22;42217;50.422;7.210;2023-07-31T04:59:23;17.10;96.10
56308;DHT22;42217;50.422;7.210;2023-07-31T05:01:49;17.10;96.20
56308;DHT22;42217;50.422;7.210;2023-07-31T05:04:15;17.20;95.00
56308;DHT22;42217;50.422;7.210;2023-07-31T05:06:41;17.20;95.70
56308;DHT22;42217;50.422;7.210;2023-07-31T05:09:07;17.20;95.50
56308;DHT22;42217;50.422;7.210;2023-07-31T05:11:34;17.20;95.50
56308;DHT22;42217;50.422;7.210;2023-07-31T05:14:00;17.30;94.20
56308;DHT22;42217;50.422;7.210;2023-07-31T05:16:26;17.40;92.30
56308;DHT22;42217;50.422;7.210;2023-07-31T05:18:51;17.50;92.50
56308;DHT22;42217;50.422;7.210;2023-07-31T05:21:17;17.50;91.50
56308;DHT22;42217;50.422;7.210;2023-07-31T05:23:43;17.40;92.90
56308;DHT22;42217;50.422;7.210;2023-07-31T05:26:08;17.50;93.60
56308;DHT22;42217;50.422;7.210;2023-07-31T05:28:38;17.40;97.90
56308;DHT22;42217;50.422;7.210;2023-07-31T05:31:04;17.20;99.90
56308;DHT22;42217;50.422;7.210;2023-07-31T05:33:30;17.00;99.90
56308;DHT22;42217;50.422;7.210;2023-07-31T05:35:57;16.80;99.90
56308;DHT22;42217;50.422;7.210;2023-07-31T05:38:22;16.70;99.90
56308;DHT22;42217;50.422;7.210;2023-07-31T05:40:48;16.80;99.90
56308;DHT22;42217;50.422;7.210;2023-07-31T05:43:14;16.80;99.90
56308;DHT22;42217;50.422;7.210;2023-07-31T05:45:41;17.00;99.90
56308;DHT22;42217;50.422;7.210;2023-07-31T05:48:07;17.00;99.90
56308;DHT22;42217;50.422;7.210;2023-07-31T05:50:33;17.20;99.90
56308;DHT22;42217;50.422;7.210;2023-07-31T05:52:58;17.20;99.90
56308;DHT22;42217;50.422;7.210;2023-07-31T05:55:25;17.30;99.90
56308;DHT22;42217;50.422;7.210;2023-07-31T05:57:53;17.40;99.90
56308;DHT22;42217;50.422;7.210;2023-07-31T06:00:19;17.40;99.50
56308;DHT22;42217;50.422;7.210;2023-07-31T06:02:47;17.50;97.60
56308;DHT22;42217;50.422;7.210;2023-07-31T06:05:12;17.60;96.10
56308;DHT22;42217;50.422;7.210;2023-07-31T06:07:38;17.60;92.80
56308;DHT22;42217;50.422;7.210;2023-07-31T06:10:04;17.60;94.50
56308;DHT22;42217;50.422;7.210;2023-07-31T06:12:32;17.60;91.90
56308;DHT22;42217;50.422;7.210;2023-07-31T06:14:59;17.60;92.70
56308;DHT22;42217;50.422;7.210;2023-07-31T06:17:25;17.60;92.70
56308;DHT22;42217;50.422;7.210;2023-07-31T06:19:51;17.60;92.30
56308;DHT22;42217;50.422;7.210;2023-07-31T06:22:17;17.60;91.20
56308;DHT22;42217;50.422;7.210;2023-07-31T06:24:43;17.60;93.20
56308;DHT22;42217;50.422;7.210;2023-07-31T06:27:10;17.60;95.70
56308;DHT22;42217;50.422;7.210;2023-07-31T06:29:36;17.60;96.90
56308;DHT22;42217;50.422;7.210;2023-07-31T06:32:02;17.70;94.40
56308;DHT22;42217;50.422;7.210;2023-07-31T06:34:28;17.60;95.00
56308;DHT22;42217;50.422;7.210;2023-07-31T06:36:55;17.50;97.30
56308;DHT22;42217;50.422;7.210;2023-07-31T06:39:21;17.60;93.80
56308;DHT22;42217;50.422;7.210;2023-07-31T06:41:47;17.50;92.40
56308;DHT22;42217;50.422;7.210;2023-07-31T06:44:12;17.50;95.60
56308;DHT22;42217;50.422;7.210;2023-07-31T06:46:38;17.60;93.80
56308;DHT22;42217;50.422;7.210;2023-07-31T06:49:03;17.70;90.60
56308;DHT22;42217;50.422;7.210;2023-07-31T06:51:29;17.90;88.40
56308;DHT22;42217;50.422;7.210;2023-07-31T06:53:57;18.00;82.10
56308;DHT22;42217;50.422;7.210;2023-07-31T06:56:23;18.10;80.40
56308;DHT22;42217;50.422;7.210;2023-07-31T06:58:48;18.20;79.40
56308;DHT22;42217;50.422;7.210;2023-07-31T07:01:14;18.20;76.10
56308;DHT22;42217;50.422;7.210;2023-07-31T07:03:40;18.20;77.40
56308;DHT22;42217;50.422;7.210;2023-07-31T07:06:05;18.20;74.00
56308;DHT22;42217;50.422;7.210;2023-07-31T07:08:31;18.40;69.50
56308;DHT22;42217;50.422;7.210;2023-07-31T07:10:57;18.40;70.70
56308;DHT22;42217;50.422;7.210;2023-07-31T07:13:22;18.50;71.30
56308;DHT22;42217;50.422;7.210;2023-07-31T07:15:49;18.70;63.10
56308;DHT22;42217;50.422;7.210;2023-07-31T07:18:15;18.90;54.00
56308;DHT22;42217;50.422;7.210;2023-07-31T07:20:46;19.00;54.60
56308;DHT22;42217;50.422;7.210;2023-07-31T07:23:12;19.30;50.20
56308;DHT22;42217;50.422;7.210;2023-07-31T07:25:38;19.60;99.90
56308;DHT22;42217;50.422;7.210;2023-07-31T07:28:04;19.70;45.10
56308;DHT22;42217;50.422;7.210;2023-07-31T07:30:29;19.70;43.10
56308;DHT22;42217;50.422;7.210;2023-07-31T07:32:55;19.80;38.00
56308;DHT22;42217;50.422;7.210;2023-07-31T07:35:21;19.70;99.90
56308;DHT22;42217;50.422;7.210;2023-07-31T07:37:50;19.60;99.90
56308;DHT22;42217;50.422;7.210;2023-07-31T07:40:16;19.70;99.90
56308;DHT22;42217;50.422;7.210;2023-07-31T07:42:42;19.70;99.90
56308;DHT22;42217;50.422;7.210;2023-07-31T07:45:08;19.60;99.90
56308;DHT22;42217;50.422;7.210;2023-07-31T07:47:33;19.40;99.90
56308;DHT22;42217;50.422;7.210;2023-07-31T07:49:59;19.30;25.40
56308;DHT22;42217;50.422;7.210;2023-07-31T07:52:25;19.20;28.50
56308;DHT22;42217;50.422;7.210;2023-07-31T07:54:50;19.10;39.70
56308;DHT22;42217;50.422;7.210;2023-07-31T07:57:16;18.90;44.70
56308;DHT22;42217;50.422;7.210;2023-07-31T07:59:42;18.60;48.40
56308;DHT22;42217;50.422;7.210;2023-07-31T08:02:08;18.40;53.90
56308;DHT22;42217;50.422;7.210;2023-07-31T08:04:33;18.20;69.60
56308;DHT22;42217;50.422;7.210;2023-07-31T08:06:59;17.80;80.00
56308;DHT22;42217;50.422;7.210;2023-07-31T08:09:25;17.50;91.40
56308;DHT22;42217;50.422;7.210;2023-07-31T08:11:50;17.20;99.90
56308;DHT22;42217;50.422;7.210;2023-07-31T08:14:16;17.10;99.90
56308;DHT22;42217;50.422;7.210;2023-07-31T08:16:42;17.20;99.90
56308;DHT22;42217;50.422;7.210;2023-07-31T08:19:08;17.30;96.10
56308;DHT22;42217;50.422;7.210;2023-07-31T08:21:34;17.50;99.90
56308;DHT22;42217;50.422;7.210;2023-07-31T08:23:59;17.50;99.90
56308;DHT22;42217;50.422;7.210;2023-07-31T08:26:25;17.60;95.90
56308;DHT22;42217;50.422;7.210;2023-07-31T08:28:51;17.70;90.00
56308;DHT22;42217;50.422;7.210;2023-07-31T08:31:16;17.90;92.90
56308;DHT22;42217;50.422;7.210;2023-07-31T08:33:43;18.00;82.70
56308;DHT22;42217;50.422;7.210;2023-07-31T08:36:09;17.90;84.10
56308;DHT22;42217;50.422;7.210;2023-07-31T08:38:35;17.80;91.30
56308;DHT22;42217;50.422;7.210;2023-07-31T08:41:03;17.90;85.60
56308;DHT22;42217;50.422;7.210;2023-07-31T08:43:29;18.00;92.10
56308;DHT22;42217;50.422;7.210;2023-07-31T08:45:56;18.10;74.10
56308;DHT22;42217;50.422;7.210;2023-07-31T08:48:23;18.20;89.30
56308;DHT22;42217;50.422;7.210;2023-07-31T08:50:51;18.40;69.70
56308;DHT22;42217;50.422;7.210;2023-07-31T08:53:17;18.60;42.90
56308;DHT22;42217;50.422;7.210;2023-07-31T08:55:43;18.80;64.90
56308;DHT22;42217;50.422;7.210;2023-07-31T08:58:10;19.00;42.80
56308;DHT22;42217;50.422;7.210;2023-07-31T09:00:38;19.10;53.60
56308;DHT22;42217;50.422;7.210;2023-07-31T09:03:16;19.10;46.30
56308;DHT22;42217;50.422;7.210;2023-07-31T09:05:46;19.20;99.90
56308;DHT22;42217;50.422;7.210;2023-07-31T09:08:13;19.30;99.90
56308;DHT22;42217;50.422;7.210;2023-07-31T09:10:44;19.50;99.90
56308;DHT22;42217;50.422;7.210;2023-07-31T09:13:14;19.70;99.90
56308;DHT22;42217;50.422;7.210;2023-07-31T09:15:41;19.90;99.90
56308;DHT22;42217;50.422;7.210;2023-07-31T09:18:08;20.00;99.90
56308;DHT22;42217;50.422;7.210;2023-07-31T09:20:34;20.10;99.90
56308;DHT22;42217;50.422;7.210;2023-07-31T09:23:12;20.40;99.90
56308;DHT22;42217;50.422;7.210;2023-07-31T09:25:43;20.40;99.90
56308;DHT22;42217;50.422;7.210;2023-07-31T09:28:10;20.30;99.90
56308;DHT22;42217;50.422;7.210;2023-07-31T09:30:50;20.40;99.90
56308;DHT22;42217;50.422;7.210;2023-07-31T09:33:17;20.50;99.90
56308;DHT22;42217;50.422;7.210;2023-07-31T09:35:43;20.80;99.90
56308;DHT22;42217;50.422;7.210;2023-07-31T09:38:13;20.90;99.90
56308;DHT22;42217;50.422;7.210;2023-07-31T09:40:43;20.60;99.90
56308;DHT22;42217;50.422;7.210;2023-07-31T09:43:10;20.40;99.90
56308;DHT22;42217;50.422;7.210;2023-07-31T09:45:38;20.30;99.90
56308;DHT22;42217;50.422;7.210;2023-07-31T09:48:23;20.40;99.90
56308;DHT22;42217;50.422;7.210;2023-07-31T09:50:52;20.60;99.90
56308;DHT22;42217;50.422;7.210;2023-07-31T09:53:17;20.80;99.90
56308;DHT22;42217;50.422;7.210;2023-07-31T09:55:43;20.70;99.90
56308;DHT22;42217;50.422;7.210;2023-07-31T09:58:11;20.60;99.90
56308;DHT22;42217;50.422;7.210;2023-07-31T10:00:38;20.70;99.90
56308;DHT22;42217;50.422;7.210;2023-07-31T10:03:10;20.90;99.90
56308;DHT22;42217;50.422;7.210;2023-07-31T10:05:46;21.10;99.90
56308;DHT22;42217;50.422;7.210;2023-07-31T10:08:15;21.10;99.90
56308;DHT22;42217;50.422;7.210;2023-07-31T10:10:42;21.30;99.90
56308;DHT22;42217;50.422;7.210;2023-07-31T10:13:37;21.40;99.90
56308;DHT22;42217;50.422;7.210;2023-07-31T10:16:06;21.30;99.90
56308;DHT22;42217;50.422;7.210;2023-07-31T10:18:32;21.50;99.90
56308;DHT22;42217;50.422;7.210;2023-07-31T10:20:59;21.80;99.90
56308;DHT22;42217;50.422;7.210;2023-07-31T10:23:25;21.70;99.90
56308;DHT22;42217;50.422;7.210;2023-07-31T10:25:53;22.00;99.90
56308;DHT22;42217;50.422;7.210;2023-07-31T10:28:20;22.00;99.90
56308;DHT22;42217;50.422;7.210;2023-07-31T10:30:46;22.20;99.90
56308;DHT22;42217;50.422;7.210;2023-07-31T10:33:13;21.90;99.90
56308;DHT22;42217;50.422;7.210;2023-07-31T10:35:38;21.60;99.90
56308;DHT22;42217;50.422;7.210;2023-07-31T10:38:11;21.80;99.90
56308;DHT22;42217;50.422;7.210;2023-07-31T10:40:37;22.00;99.90
56308;DHT22;42217;50.422;7.210;2023-07-31T10:43:03;22.20;99.90
56308;DHT22;42217;50.422;7.210;2023-07-31T10:45:39;22.50;99.90
56308;DHT22;42217;50.422;7.210;2023-07-31T10:48:16;22.50;99.90
56308;DHT22;42217;50.422;7.210;2023-07-31T10:53:25;22.70;99.90
56308;DHT22;42217;50.422;7.210;2023-07-31T10:58:45;22.90;99.90
56308;DHT22;42217;50.422;7.210;2023-07-31T11:01:11;23.10;99.90
56308;DHT22;42217;50.422;7.210;2023-07-31T11:06:08;23.20;99.90
56308;DHT22;42217;50.422;7.210;2023-07-31T11:08:35;23.00;99.90
56308;DHT22;42217;50.422;7.210;2023-07-31T11:13:30;23.30;99.90
56308;DHT22;42217;50.422;7.210;2023-07-31T11:15:56;23.10;99.90
56308;DHT22;42217;50.422;7.210;2023-07-31T11:18:22;23.10;99.90
56308;DHT22;42217;50.422;7.210;2023-07-31T11:20:47;23.10;99.90
56308;DHT22;42217;50.422;7.210;2023-07-31T11:23:16;23.00;99.90
56308;DHT22;42217;50.422;7.210;2023-07-31T11:25:42;22.70;99.90
56308;DHT22;42217;50.422;7.210;2023-07-31T11:28:15;22.50;99.90
56308;DHT22;42217;50.422;7.210;2023-07-31T11:30:43;22.60;99.90
56308;DHT22;42217;50.422;7.210;2023-07-31T11:33:10;22.40;99.90
56308;DHT22;42217;50.422;7.210;2023-07-31T11:35:42;22.50;99.90
56308;DHT22;42217;50.422;7.210;2023-07-31T11:38:11;22.30;99.90
56308;DHT22;42217;50.422;7.210;2023-07-31T11:40:43;21.90;99.90
56308;DHT22;42217;50.422;7.210;2023-07-31T11:43:10;21.60;99.90
56308;DHT22;42217;50.422;7.210;2023-07-31T11:45:41;21.60;99.90
56308;DHT22;42217;50.422;7.210;2023-07-31T11:48:07;21.60;99.90
56308;DHT22;42217;50.422;7.210;2023-07-31T11:50:34;21.80;99.90
56308;DHT22;42217;50.422;7.210;2023-07-31T11:53:06;22.20;99.90
56308;DHT22;42217;50.422;7.210;2023-07-31T11:55:33;22.40;99.90
56308;DHT22;42217;50.422;7.210;2023-07-31T11:57:59;22.40;99.90
56308;DHT22;42217;50.422;7.210;2023-07-31T12:00:26;22.70;99.90
56308;DHT22;42217;50.422;7.210;2023-07-31T12:02:53;23.00;99.90
56308;DHT22;42217;50.422;7.210;2023-07-31T12:05:18;23.00;99.90
56308;DHT22;42217;50.422;7.210;2023-07-31T12:07:54;22.90;99.90
56308;DHT22;42217;50.422;7.210;2023-07-31T12:10:31;22.60;99.90
56308;DHT22;42217;50.422;7.210;2023-07-31T12:13:03;22.90;99.90
56308;DHT22;42217;50.422;7.210;2023-07-31T12:15:41;23.20;99.90
56308;DHT22;42217;50.422;7.210;2023-07-31T12:18:11;23.50;99.90
56308;DHT22;42217;50.422;7.210;2023-07-31T12:20:45;23.40;99.90
56308;DHT22;42217;50.422;7.210;2023-07-31T12:23:22;23.20;99.90
56308;DHT22;42217;50.422;7.210;2023-07-31T12:26:04;23.00;99.90
56308;DHT22;42217;50.422;7.210;2023-07-31T12:28:30;23.00;99.90
56308;DHT22;42217;50.422;7.210;2023-07-31T12:31:00;23.10;99.90
56308;DHT22;42217;50.422;7.210;2023-07-31T12:33:31;22.70;99.90
56308;DHT22;42217;50.422;7.210;2023-07-31T12:36:00;22.60;99.90
56308;DHT22;42217;50.422;7.210;2023-07-31T12:38:26;22.70;99.90
56308;DHT22;42217;50.422;7.210;2023-07-31T12:40:51;22.80;99.90
56308;DHT22;42217;50.422;7.210;2023-07-31T12:43:17;23.10;99.90
56308;DHT22;42217;50.422;7.210;2023-07-31T12:45:43;23.60;99.90
56308;DHT22;42217;50.422;7.210;2023-07-31T12:48:09;23.50;99.90
56308;DHT22;42217;50.422;7.210;2023-07-31T12:50:35;23.20;99.90
56308;DHT22;42217;50.422;7.210;2023-07-31T12:53:05;22.90;99.90
56308;DHT22;42217;50.422;7.210;2023-07-31T12:55:31;22.70;99.90
56308;DHT22;42217;50.422;7.210;2023-07-31T12:57:57;22.30;99.90
56308;DHT22;42217;50.422;7.210;2023-07-31T13:00:22;22.10;99.90
56308;DHT22;42217;50.422;7.210;2023-07-31T13:02:48;21.80;99.90
56308;DHT22;42217;50.422;7.210;2023-07-31T13:05:14;21.60;99.90
56308;DHT22;42217;50.422;7.210;2023-07-31T13:07:40;21.20;99.90
56308;DHT22;42217;50.422;7.210;2023-07-31T13:10:07;21.00;99.90
56308;DHT22;42217;50.422;7.210;2023-07-31T13:12:33;20.80;99.90
56308;DHT22;42217;50.422;7.210;2023-07-31T13:14:59;20.60;99.90
56308;DHT22;42217;50.422;7.210;2023-07-31T13:17:25;20.60;99.90
56308;DHT22;42217;50.422;7.210;2023-07-31T13:19:50;20.60;99.90
56308;DHT22;42217;50.422;7.210;2023-07-31T13:22:16;20.60;99.90
56308;DHT22;42217;50.422;7.210;2023-07-31T13:24:42;20.60;99.90
56308;DHT22;42217;50.422;7.210;2023-07-31T13:27:07;20.40;99.90
56308;DHT22;42217;50.422;7.210;2023-07-31T13:29:33;20.30;99.90
56308;DHT22;42217;50.422;7.210;2023-07-31T13:31:59;20.50;99.90
56308;DHT22;42217;50.422;7.210;2023-07-31T13:34:24;20.90;99.90
56308;DHT22;42217;50.422;7.210;2023-07-31T13:36:50;20.90;99.90
56308;DHT22;42217;50.422;7.210;2023-07-31T13:39:16;20.90;99.90
56308;DHT22;42217;50.422;7.210;2023-07-31T13:41:41;20.80;99.90
56308;DHT22;42217;50.422;7.210;2023-07-31T13:44:07;20.50;99.90
56308;DHT22;42217;50.422;7.210;2023-07-31T13:46:33;20.40;99.90
56308;DHT22;42217;50.422;7.210;2023-07-31T13:48:59;20.40;99.90
56308;DHT22;42217;50.422;7.210;2023-07-31T13:51:25;20.50;99.90
56308;DHT22;42217;50.422;7.210;2023-07-31T13:53:51;20.60;99.90
56308;DHT22;42217;50.422;7.210;2023-07-31T13:56:17;20.70;99.90
56308;DHT22;42217;50.422;7.210;2023-07-31T13:58:42;20.70;99.90
56308;DHT22;42217;50.422;7.210;2023-07-31T14:01:08;20.80;99.90
56308;DHT22;42217;50.422;7.210;2023-07-31T14:03:34;20.60;99.90
56308;DHT22;42217;50.422;7.210;2023-07-31T14:06:00;20.80;99.90
56308;DHT22;42217;50.422;7.210;2023-07-31T14:08:25;21.10;99.90
56308;DHT22;42217;50.422;7.210;2023-07-31T14:10:51;21.20;99.90
56308;DHT22;42217;50.422;7.210;2023-07-31T14:13:17;21.30;99.90
56308;DHT22;42217;50.422;7.210;2023-07-31T14:15:43;21.30;99.90
56308;DHT22;42217;50.422;7.210;2023-07-31T14:18:09;21.70;99.90
56308;DHT22;42217;50.422;7.210;2023-07-31T14:20:35;21.50;99.90
56308;DHT22;42217;50.422;7.210;2023-07-31T14:23:02;21.40;99.90
56308;DHT22;42217;50.422;7.210;2023-07-31T14:25:28;21.10;99.90
56308;DHT22;42217;50.422;7.210;2023-07-31T14:27:53;20.80;99.90
56308;DHT22;42217;50.422;7.210;2023-07-31T14:30:19;20.60;99.90
56308;DHT22;42217;50.422;7.210;2023-07-31T14:32:46;20.60;99.90
56308;DHT22;42217;50.422;7.210;2023-07-31T14:35:12;20.40;99.90
56308;DHT22;42217;50.422;7.210;2023-07-31T14:37:39;20.40;99.90
56308;DHT22;42217;50.422;7.210;2023-07-31T14:40:06;20.60;99.90
56308;DHT22;42217;50.422;7.210;2023-07-31T14:42:33;20.80;99.90
56308;DHT22;42217;50.422;7.210;2023-07-31T14:44:59;21.10;99.90
56308;DHT22;42217;50.422;7.210;2023-07-31T14:47:25;21.50;99.90
56308;DHT22;42217;50.422;7.210;2023-07-31T14:49:50;21.30;99.90
56308;DHT22;42217;50.422;7.210;2023-07-31T14:52:16;21.30;99.90
56308;DHT22;42217;50.422;7.210;2023-07-31T14:54:42;21.00;99.90
56308;DHT22;42217;50.422;7.210;2023-07-31T14:57:08;20.50;99.90
56308;DHT22;42217;50.422;7.210;2023-07-31T14:59:33;20.30;99.90
56308;DHT22;42217;50.422;7.210;2023-07-31T15:01:59;20.40;99.90
56308;DHT22;42217;50.422;7.210;2023-07-31T15:04:25;20.30;99.90
56308;DHT22;42217;50.422;7.210;2023-07-31T15:06:52;20.50;99.90
56308;DHT22;42217;50.422;7.210;2023-07-31T15:09:18;20.30;99.90
56308;DHT22;42217;50.422;7.210;2023-07-31T15:11:43;20.10;99.90
56308;DHT22;42217;50.422;7.210;2023-07-31T15:14:09;19.90;99.90
56308;DHT22;42217;50.422;7.210;2023-07-31T15:16:35;19.70;25.00
56308;DHT22;42217;50.422;7.210;2023-07-31T15:19:01;19.60;29.80
56308;DHT22;42217;50.422;7.210;2023-07-31T15:21:26;19.50;32.40
56308;DHT22;42217;50.422;7.210;2023-07-31T15:23:52;19.40;37.80
56308;DHT22;42217;50.422;7.210;2023-07-31T15:26:18;19.40;38.00
56308;DHT22;42217;50.422;7.210;2023-07-31T15:28:50;19.40;38.80
56308;DHT22;42217;50.422;7.210;2023-07-31T15:31:20;19.30;42.60
56308;DHT22;42217;50.422;7.210;2023-07-31T15:33:48;19.40;45.20
56308;DHT22;42217;50.422;7.210;2023-07-31T15:36:13;19.50;41.70
56308;DHT22;42217;50.422;7.210;2023-07-31T15:38:39;19.70;32.00
56308;DHT22;42217;50.422;7.210;2023-07-31T15:41:05;19.70;32.60
56308;DHT22;42217;50.422;7.210;2023-07-31T15:43:31;19.60;35.80
56308;DHT22;42217;50.422;7.210;2023-07-31T15:45:57;19.60;35.70
56308;DHT22;42217;50.422;7.210;2023-07-31T15:48:23;19.70;34.30
56308;DHT22;42217;50.422;7.210;2023-07-31T15:50:49;19.70;33.90
56308;DHT22;42217;50.422;7.210;2023-07-31T15:53:15;19.60;32.80